Time;durP1;ratioP1;P1;durP2;ratioP2;P2;SDS_P1;SDS_P2;PMS_P1;PMS_P2;Temp;Humidity;BMP_temperature;BMP_pressure;BME280_temperature;BME280_humidity;BME280_pressure;Samples;Min_cycle;Max_cycle;Signal;HPM_P1;HPM_P2
2023/03/24 00:01:03;;;;;;;13.77;10.88;;;;;;;-145.63;100.00;61273.97;5009759;28;20041;-64
2023/03/24 00:03:29;;;;;;;11.85;10.60;;;;;;;-145.63;100.00;61273.97;5025098;28;20071;-65
2023/03/24 00:06:00;;;;;;;12.45;10.27;;;;;;;-145.63;100.00;61273.97;5031719;28;20116;-66
2023/03/24 00:08:34;;;;;;;12.82;10.85;;;;;;;-145.63;100.00;61273.97;5003077;28;20045;-65
2023/03/24 00:11:07;;;;;;;13.57;10.43;;;;;;;-145.63;100.00;61273.97;5005249;28;20101;-65
2023/03/24 00:13:37;;;;;;;11.90;10.07;;;;;;;-145.63;100.00;61273.97;5023517;28;20129;-65
2023/03/24 00:16:09;;;;;;;12.02;10.57;;;;;;;-145.63;100.00;61273.97;5007793;28;20053;-65
2023/03/24 00:18:36;;;;;;;13.30;11.13;;;;;;;-145.63;100.00;61273.97;4997070;28;20333;-66
2023/03/24 00:21:03;;;;;;;12.73;10.98;;;;;;;-145.63;100.00;61273.97;5023688;28;20046;-66
2023/03/24 00:23:33;;;;;;;11.52;10.23;;;;;;;-145.63;100.00;61273.97;5021393;28;20084;-66
2023/03/24 00:26:08;;;;;;;14.05;11.95;;;;;;;-145.63;100.00;61273.97;5008032;28;20382;-65
2023/03/24 00:28:35;;;;;;;13.82;11.20;;;;;;;-145.63;100.00;61273.97;5023171;28;20337;-66
2023/03/24 00:31:03;;;;;;;13.20;11.15;;;;;;;-145.63;100.00;61273.97;5027743;28;20041;-65
2023/03/24 00:33:31;;;;;;;14.32;11.85;;;;;;;-145.63;100.00;61273.97;5033005;28;20030;-67
2023/03/24 00:36:02;;;;;;;14.05;11.30;;;;;;;-145.63;100.00;61273.97;5017667;28;20306;-65
2023/03/24 00:38:27;;;;;;;13.75;11.38;;;;;;;-145.63;100.00;61273.97;5005788;28;20089;-67
2023/03/24 00:40:54;;;;;;;16.35;12.10;;;;;;;-145.63;100.00;61273.97;5022969;28;20069;-67
2023/03/24 00:43:20;;;;;;;17.70;12.35;;;;;;;-145.63;100.00;61273.97;5005264;28;20042;-67
2023/03/24 00:45:46;;;;;;;13.55;11.65;;;;;;;-145.63;100.00;61273.97;5016309;28;20033;-67
2023/03/24 00:48:17;;;;;;;14.90;11.93;;;;;;;-145.63;100.00;61273.97;5015255;28;20026;-66
2023/03/24 00:50:50;;;;;;;14.32;11.75;;;;;;;-145.63;100.00;61273.97;5006800;28;20049;-66
2023/03/24 00:53:17;;;;;;;14.75;12.32;;;;;;;-145.63;100.00;61273.97;5023107;28;20038;-66
2023/03/24 00:55:46;;;;;;;14.50;11.90;;;;;;;-145.63;100.00;61273.97;5003739;28;20165;-65
2023/03/24 00:58:17;;;;;;;13.18;11.43;;;;;;;-145.63;100.00;61273.97;5018315;28;20146;-65
2023/03/24 01:00:47;;;;;;;14.45;11.85;;;;;;;-145.63;100.00;61273.97;5010447;28;20045;-67
2023/03/24 01:03:14;;;;;;;16.88;12.80;;;;;;;-145.63;100.00;61273.97;5011534;28;20036;-66
2023/03/24 01:05:41;;;;;;;13.63;11.57;;;;;;;-145.63;100.00;61273.97;5023107;28;20046;-66
2023/03/24 01:08:09;;;;;;;15.63;12.48;;;;;;;-145.63;100.00;61273.97;5023117;28;20097;-67
2023/03/24 01:10:49;;;;;;;13.55;12.15;;;;;;;-145.63;100.00;61273.97;5022273;28;20056;-67
2023/03/24 01:13:16;;;;;;;14.43;12.45;;;;;;;-145.63;100.00;61273.97;5005657;28;20050;-67
2023/03/24 01:15:44;;;;;;;15.32;12.77;;;;;;;-145.63;100.00;61273.97;5015173;28;20026;-67
2023/03/24 01:18:11;;;;;;;14.63;12.57;;;;;;;-145.63;100.00;61273.97;5015660;28;20414;-67
2023/03/24 01:20:39;;;;;;;16.20;12.38;;;;;;;-145.63;100.00;61273.97;5037635;28;20042;-67
2023/03/24 01:23:06;;;;;;;15.82;13.20;;;;;;;-145.63;100.00;61273.97;5022427;28;20034;-66
2023/03/24 01:25:35;;;;;;;13.88;11.88;;;;;;;-145.63;100.00;61273.97;5004394;28;20047;-67
2023/03/24 01:28:01;;;;;;;15.27;12.38;;;;;;;-145.63;100.00;61273.97;5020783;28;20037;-67
2023/03/24 01:30:28;;;;;;;15.20;12.30;;;;;;;-145.63;100.00;61273.97;5025518;28;20284;-67
2023/03/24 01:32:54;;;;;;;15.38;11.93;;;;;;;-145.63;100.00;61273.97;5041410;28;20030;-66
2023/03/24 01:35:21;;;;;;;14.00;11.82;;;;;;;-145.63;100.00;61273.97;5025683;28;20325;-66
2023/03/24 01:37:47;;;;;;;15.32;12.88;;;;;;;-145.63;100.00;61273.97;5007452;28;20090;-65
2023/03/24 01:40:25;;;;;;;18.67;13.00;;;;;;;-145.63;100.00;61273.97;5022793;28;20033;-66
2023/03/24 01:42:51;;;;;;;16.10;12.15;;;;;;;-145.63;100.00;61273.97;5045699;28;20029;-65
2023/03/24 01:45:39;;;;;;;15.75;12.48;;;;;;;-145.63;100.00;61273.97;5046156;28;20211;-66
2023/03/24 01:48:10;;;;;;;14.65;12.48;;;;;;;-145.63;100.00;61273.97;5020150;28;20382;-65
2023/03/24 01:50:36;;;;;;;;;;;;;;;-145.63;100.00;61273.97;5012202;28;20045;-65
2023/03/24 01:53:03;;;;;;;14.00;11.90;;;;;;;-145.63;100.00;61273.97;5045825;28;19980;-65
2023/03/24 01:55:30;;;;;;;15.38;13.05;;;;;;;-145.63;100.00;61273.97;5027036;28;20049;-66
2023/03/24 01:58:00;;;;;;;17.42;13.02;;;;;;;-145.63;100.00;61273.97;5012884;28;20040;-67
2023/03/24 02:00:26;;;;;;;13.75;12.00;;;;;;;-145.63;100.00;61273.97;5015395;28;20101;-66
2023/03/24 02:03:05;;;;;;;12.80;11.50;;;;;;;-145.63;100.00;61273.97;5021497;28;20346;-66
2023/03/24 02:05:34;;;;;;;14.10;12.60;;;;;;;-145.63;100.00;61273.97;5007391;28;20039;-67
2023/03/24 02:08:02;;;;;;;15.55;12.65;;;;;;;-145.63;100.00;61273.97;5026094;28;20053;-66
2023/03/24 02:10:32;;;;;;;16.90;12.77;;;;;;;-145.63;100.00;61273.97;5024557;28;20037;-66
2023/03/24 02:12:58;;;;;;;15.57;12.90;;;;;;;-145.63;100.00;61273.97;5012578;28;20026;-66
2023/03/24 02:15:25;;;;;;;14.38;12.88;;;;;;;-145.63;100.00;61273.97;5021260;28;20038;-67
2023/03/24 02:17:57;;;;;;;15.95;12.90;;;;;;;-145.63;100.00;61273.97;5010869;28;20034;-68
2023/03/24 02:20:41;;;;;;;14.07;12.35;;;;;;;-145.63;100.00;61273.97;5025275;28;20233;-66
2023/03/24 02:23:27;;;;;;;15.82;13.35;;;;;;;-145.63;100.00;61273.97;5005845;28;20210;-65
2023/03/24 02:26:21;;;;;;;14.25;12.75;;;;;;;-145.63;100.00;61273.97;5006243;28;20030;-65
2023/03/24 02:29:13;;;;;;;16.48;13.80;;;;;;;-145.63;100.00;61273.97;5017375;28;20034;-67
2023/03/24 02:32:20;;;;;;;16.92;13.10;;;;;;;-145.63;100.00;61273.97;5033774;28;20044;-66
2023/03/24 02:35:09;;;;;;;15.77;14.07;;;;;;;-145.63;100.00;61273.97;5006826;28;20093;-66
2023/03/24 02:37:37;;;;;;;15.57;12.75;;;;;;;-145.63;100.00;61273.97;5023852;28;20101;-66
2023/03/24 02:40:17;;;;;;;15.80;13.00;;;;;;;-145.63;100.00;61273.97;5010689;28;20037;-67
2023/03/24 02:43:18;;;;;;;16.42;12.75;;;;;;;-145.63;100.00;61273.97;5016844;28;20097;-66
2023/03/24 02:46:12;;;;;;;17.08;12.68;;;;;;;-145.63;100.00;61273.97;5014054;28;20026;-65
2023/03/24 02:48:53;;;;;;;17.77;13.63;;;;;;;-145.63;100.00;61273.97;5025764;28;20217;-66
2023/03/24 02:51:43;;;;;;;17.45;13.52;;;;;;;-145.63;100.00;61273.97;5035160;28;20039;-66
2023/03/24 02:54:15;;;;;;;17.40;13.10;;;;;;;-145.63;100.00;61273.97;5018330;28;20094;-66
2023/03/24 02:57:09;;;;;;;16.35;13.10;;;;;;;-145.63;100.00;61273.97;5023647;28;20369;-66
2023/03/24 02:59:49;;;;;;;16.15;12.98;;;;;;;-145.63;100.00;61273.97;5026682;28;20105;-67
2023/03/24 03:02:36;;;;;;;14.93;12.48;;;;;;;-145.63;100.00;61273.97;5045364;28;20302;-66
2023/03/24 03:05:12;;;;;;;14.80;12.77;;;;;;;-145.63;100.00;61273.97;5044683;28;20037;-66
2023/03/24 03:07:40;;;;;;;15.00;13.40;;;;;;;-145.63;100.00;61273.97;5025850;28;20034;-66
2023/03/24 03:10:20;;;;;;;16.17;12.98;;;;;;;-145.63;100.00;61273.97;5010726;28;20032;-67
2023/03/24 03:12:51;;;;;;;15.25;13.40;;;;;;;-145.63;100.00;61273.97;5024797;28;20050;-67
2023/03/24 03:15:31;;;;;;;16.25;13.45;;;;;;;-145.63;100.00;61273.97;5017340;28;20018;-67
2023/03/24 03:18:15;;;;;;;15.00;13.38;;;;;;;-145.63;100.00;61273.97;5026205;28;20525;-67
2023/03/24 03:20:51;;;;;;;18.77;14.90;;;;;;;-145.63;100.00;61273.97;5041918;28;20064;-66
2023/03/24 03:23:30;;;;;;;15.70;13.27;;;;;;;-145.63;100.00;61273.97;5024587;28;20044;-66
2023/03/24 03:26:03;;;;;;;17.70;13.50;;;;;;;-145.63;100.00;61273.97;5005463;28;20026;-67
2023/03/24 03:28:32;;;;;;;16.48;13.85;;;;;;;-145.63;100.00;61273.97;5020572;28;20372;-66
2023/03/24 03:31:06;;;;;;;16.63;13.90;;;;;;;-145.63;100.00;61273.97;5037008;28;20068;-66
2023/03/24 03:34:02;;;;;;;19.52;13.93;;;;;;;-145.63;100.00;61273.97;5044396;28;20356;-66
2023/03/24 03:36:34;;;;;;;17.35;14.18;;;;;;;-145.63;100.00;61273.97;5039615;28;20329;-67
2023/03/24 03:39:12;;;;;;;;;;;;;;;-145.63;100.00;61273.97;5044099;28;20037;-66
2023/03/24 03:41:39;;;;;;;19.55;14.27;;;;;;;-145.63;100.00;61273.97;5040959;28;19912;-66
2023/03/24 03:44:05;;;;;;;16.35;13.70;;;;;;;-145.63;100.00;61273.97;5023311;28;20029;-68
2023/03/24 03:46:31;;;;;;;17.10;14.60;;;;;;;-145.63;100.00;61273.97;5005840;28;20026;-66
2023/03/24 03:48:57;;;;;;;16.60;13.73;;;;;;;-145.63;100.00;61273.97;5016431;28;20064;-65
2023/03/24 03:51:23;;;;;;;16.98;14.02;;;;;;;-145.63;100.00;61273.97;5015996;28;20030;-66
2023/03/24 03:54:05;;;;;;;15.10;12.95;;;;;;;-145.63;100.00;61273.97;5007888;28;20061;-67
2023/03/24 03:56:34;;;;;;;16.13;14.07;;;;;;;-145.63;100.00;61273.97;5023298;28;20117;-67
2023/03/24 03:59:01;;;;;;;17.02;14.05;;;;;;;-145.63;100.00;61273.97;5003000;28;20567;-67
2023/03/24 04:01:30;;;;;;;16.45;13.05;;;;;;;-145.63;100.00;61273.97;5020493;28;20029;-68
2023/03/24 04:04:19;;;;;;;18.00;14.32;;;;;;;-145.63;100.00;61273.97;5011833;28;20038;-67
2023/03/24 04:07:18;;;;;;;16.55;14.30;;;;;;;-145.63;100.00;61273.97;5013871;28;20206;-66
2023/03/24 04:09:58;;;;;;;20.10;15.30;;;;;;;-145.63;100.00;61273.97;5023504;28;20033;-66
2023/03/24 04:12:23;;;;;;;19.52;15.70;;;;;;;-145.63;100.00;61273.97;5015621;28;20211;-66
2023/03/24 04:15:17;;;;;;;17.25;15.30;;;;;;;-145.63;100.00;61273.97;5007132;28;20036;-66
2023/03/24 04:17:53;;;;;;;19.13;16.45;;;;;;;-145.63;100.00;61273.97;5020428;28;20033;-66
2023/03/24 04:20:23;;;;;;;22.17;16.73;;;;;;;-145.63;100.00;61273.97;5004244;28;20037;-66
2023/03/24 04:23:13;;;;;;;20.58;17.08;;;;;;;-145.63;100.00;61273.97;5022903;28;20034;-67
2023/03/24 04:26:10;;;;;;;19.20;15.95;;;;;;;-145.63;100.00;61273.97;5040666;28;20052;-66
2023/03/24 04:28:46;;;;;;;22.98;17.55;;;;;;;-145.63;100.00;61273.97;5024556;28;20038;-66
2023/03/24 04:31:30;;;;;;;22.15;17.27;;;;;;;-145.63;100.00;61273.97;5060788;28;20029;-65
2023/03/24 04:34:11;;;;;;;20.85;16.85;;;;;;;-145.63;100.00;61273.97;5031538;28;20034;-66
2023/03/24 04:36:44;;;;;;;22.03;17.87;;;;;;;-145.63;100.00;61273.97;5014083;28;20097;-66
2023/03/24 04:39:17;;;;;;;21.65;18.05;;;;;;;-145.63;100.00;61273.97;5015105;28;20056;-66
2023/03/24 04:41:46;;;;;;;22.55;17.30;;;;;;;-145.63;100.00;61273.97;5040654;28;20033;-69
2023/03/24 04:44:20;;;;;;;22.92;17.95;;;;;;;-145.63;100.00;61273.97;5023294;28;20030;-67
2023/03/24 04:46:50;;;;;;;23.33;18.10;;;;;;;-145.63;100.00;61273.97;5041845;28;20526;-65
2023/03/24 04:49:15;;;;;;;22.98;18.45;;;;;;;-145.63;100.00;61273.97;5028712;28;20092;-65
2023/03/24 04:51:43;;;;;;;23.08;18.42;;;;;;;-145.63;100.00;61273.97;5012888;28;20041;-66
2023/03/24 04:54:08;;;;;;;21.27;18.55;;;;;;;-145.63;100.00;61273.97;5008411;28;20036;-65
2023/03/24 04:56:50;;;;;;;24.40;19.13;;;;;;;-145.63;100.00;61273.97;5022567;28;20037;-65
2023/03/24 04:59:17;;;;;;;22.73;18.42;;;;;;;-145.63;100.00;61273.97;5003733;28;20030;-67
2023/03/24 05:01:48;;;;;;;24.60;19.63;;;;;;;-145.63;100.00;61273.97;5020813;28;20060;-66
2023/03/24 05:04:19;;;;;;;24.35;20.08;;;;;;;-145.63;100.00;61273.97;5008725;28;20117;-67
2023/03/24 05:06:51;;;;;;;22.88;19.63;;;;;;;-145.63;100.00;61273.97;5012862;28;20042;-65
2023/03/24 05:09:20;;;;;;;23.10;19.10;;;;;;;-145.63;100.00;61273.97;5023138;28;20049;-66
2023/03/24 05:11:46;;;;;;;24.38;19.73;;;;;;;-145.63;100.00;61273.97;5020436;28;20025;-65
2023/03/24 05:14:11;;;;;;;26.75;20.60;;;;;;;-145.63;100.00;61273.97;5002530;28;20037;-67
2023/03/24 05:16:37;;;;;;;23.98;19.67;;;;;;;-145.63;100.00;61273.97;5020126;28;20306;-66
2023/03/24 05:19:04;;;;;;;26.35;20.77;;;;;;;-145.63;100.00;61273.97;5010499;28;20137;-65
2023/03/24 05:21:30;;;;;;;25.08;21.05;;;;;;;-145.63;100.00;61273.97;5011353;28;20036;-66
2023/03/24 05:23:56;;;;;;;27.80;20.40;;;;;;;-145.63;100.00;61273.97;5018965;28;20061;-67
2023/03/24 05:26:21;;;;;;;29.05;20.73;;;;;;;-145.63;100.00;61273.97;5003178;28;20027;-66
2023/03/24 05:28:47;;;;;;;26.25;21.30;;;;;;;-145.63;100.00;61273.97;5021067;28;20026;-67
2023/03/24 05:31:13;;;;;;;25.23;20.75;;;;;;;-145.63;100.00;61273.97;5020541;28;20172;-65
2023/03/24 05:33:39;;;;;;;28.42;20.85;;;;;;;-145.63;100.00;61273.97;5033443;28;20144;-66
2023/03/24 05:36:05;;;;;;;27.20;22.83;;;;;;;-145.63;100.00;61273.97;5018330;28;20307;-66
2023/03/24 05:38:31;;;;;;;25.58;20.73;;;;;;;-145.63;100.00;61273.97;5003057;28;20030;-66
2023/03/24 05:41:00;;;;;;;30.20;23.13;;;;;;;-145.63;100.00;61273.97;5021732;28;20026;-66
2023/03/24 05:43:26;;;;;;;24.25;21.65;;;;;;;-145.63;100.00;61273.97;5006948;28;20261;-65
2023/03/24 05:45:52;;;;;;;29.60;22.15;;;;;;;-145.63;100.00;61273.97;5013424;28;20045;-66
2023/03/24 05:48:18;;;;;;;26.90;21.88;;;;;;;-145.63;100.00;61273.97;5015759;28;20038;-66
2023/03/24 05:50:43;;;;;;;25.70;22.20;;;;;;;-145.63;100.00;61273.97;5003977;28;20495;-67
2023/03/24 05:53:09;;;;;;;26.05;21.27;;;;;;;-145.63;100.00;61273.97;5022476;28;20310;-66
2023/03/24 05:55:35;;;;;;;24.13;21.52;;;;;;;-145.63;100.00;61273.97;5006024;28;20057;-66
2023/03/24 05:58:03;;;;;;;27.45;22.48;;;;;;;-145.63;100.00;61273.97;5014004;28;20026;-66
2023/03/24 06:00:30;;;;;;;27.15;21.85;;;;;;;-145.63;100.00;61273.97;5015090;28;20365;-66
2023/03/24 06:02:57;;;;;;;26.73;22.40;;;;;;;-145.63;100.00;61273.97;5005160;28;20030;-66
2023/03/24 06:05:23;;;;;;;26.52;22.05;;;;;;;-145.63;100.00;61273.97;5022016;28;20206;-66
2023/03/24 06:07:49;;;;;;;29.83;22.52;;;;;;;-145.63;100.00;61273.97;5022529;28;20034;-66
2023/03/24 06:10:17;;;;;;;30.15;24.17;;;;;;;-145.63;100.00;61273.97;5035791;28;20039;-66
2023/03/24 06:12:44;;;;;;;27.80;22.92;;;;;;;-145.63;100.00;61273.97;5033622;28;20045;-66
2023/03/24 06:15:10;;;;;;;26.80;23.40;;;;;;;-145.63;100.00;61273.97;5020781;28;20311;-65
2023/03/24 06:17:36;;;;;;;28.80;22.92;;;;;;;-145.63;100.00;61273.97;5006391;28;20307;-66
2023/03/24 06:20:04;;;;;;;27.08;22.38;;;;;;;-145.63;100.00;61273.97;5026063;28;20037;-66
2023/03/24 06:22:32;;;;;;;28.98;22.90;;;;;;;-145.63;100.00;61273.97;5009117;28;20036;-66
2023/03/24 06:24:58;;;;;;;27.10;22.45;;;;;;;-145.63;100.00;61273.97;5026579;28;20018;-66
2023/03/24 06:27:29;;;;;;;28.05;22.50;;;;;;;-145.63;100.00;61273.97;5044582;28;20029;-67
2023/03/24 06:29:58;;;;;;;25.85;22.58;;;;;;;-145.63;100.00;61273.97;5025498;28;20055;-67
2023/03/24 06:32:24;;;;;;;25.40;22.23;;;;;;;-145.63;100.00;61273.97;5041144;28;20044;-65
2023/03/24 06:34:50;;;;;;;28.65;23.50;;;;;;;-145.63;100.00;61273.97;5026408;28;20026;-65
2023/03/24 06:37:15;;;;;;;26.65;22.92;;;;;;;-145.63;100.00;61273.97;5011236;28;20026;-65
2023/03/24 06:39:41;;;;;;;30.15;23.52;;;;;;;-145.63;100.00;61273.97;5014732;28;20144;-66
2023/03/24 06:42:07;;;;;;;24.75;21.38;;;;;;;-145.63;100.00;61273.97;5021117;28;20038;-66
2023/03/24 06:44:32;;;;;;;26.90;21.38;;;;;;;-145.63;100.00;61273.97;5005341;28;20387;-66
2023/03/24 06:46:58;;;;;;;24.55;21.70;;;;;;;-145.63;100.00;61273.97;5024743;28;20301;-66
2023/03/24 06:49:24;;;;;;;29.88;21.27;;;;;;;-145.63;100.00;61273.97;5010886;28;20033;-66
2023/03/24 06:51:50;;;;;;;25.70;21.27;;;;;;;-145.63;100.00;61273.97;5015292;28;20080;-66
2023/03/24 06:54:16;;;;;;;22.23;19.85;;;;;;;-145.63;100.00;61273.97;5015156;28;20022;-67
2023/03/24 06:56:42;;;;;;;26.15;21.15;;;;;;;-145.63;100.00;61273.97;5023758;28;20149;-67
2023/03/24 06:59:09;;;;;;;22.10;19.77;;;;;;;-145.63;100.00;61273.97;5005696;28;20307;-66
2023/03/24 07:01:36;;;;;;;23.67;19.52;;;;;;;-145.63;100.00;61273.97;5020891;28;20214;-67
2023/03/24 07:04:02;;;;;;;23.48;19.13;;;;;;;-145.63;100.00;61273.97;5003655;28;20029;-65
2023/03/24 07:06:28;;;;;;;24.48;19.65;;;;;;;-145.63;100.00;61273.97;5012289;28;20038;-66
2023/03/24 07:08:55;;;;;;;21.60;18.88;;;;;;;-145.63;100.00;61273.97;5024980;28;20326;-67
2023/03/24 07:11:21;;;;;;;19.50;17.50;;;;;;;-145.63;100.00;61273.97;5056770;28;20022;-66
2023/03/24 07:13:46;;;;;;;20.42;17.33;;;;;;;-145.63;100.00;61273.97;5024976;28;20091;-66
2023/03/24 07:16:12;;;;;;;20.60;17.60;;;;;;;-145.63;100.00;61273.97;5013811;28;20053;-66
2023/03/24 07:18:37;;;;;;;20.30;18.10;;;;;;;-145.63;100.00;61273.97;5013053;28;20072;-66
2023/03/24 07:21:03;;;;;;;24.20;18.98;;;;;;;-145.63;100.00;61273.97;5027598;28;20025;-66
2023/03/24 07:23:29;;;;;;;24.58;18.05;;;;;;;-145.63;100.00;61273.97;5043803;28;20021;-67
2023/03/24 07:25:55;;;;;;;23.05;18.15;;;;;;;-145.63;100.00;61273.97;5025303;28;20030;-66
2023/03/24 07:28:20;;;;;;;21.80;17.48;;;;;;;-145.63;100.00;61273.97;5030223;28;20353;-66
2023/03/24 07:30:46;;;;;;;20.90;17.85;;;;;;;-145.63;100.00;61273.97;5026465;28;20289;-67
2023/03/24 07:33:12;;;;;;;22.13;18.05;;;;;;;-145.63;100.00;61273.97;5039593;28;20037;-68
2023/03/24 07:35:38;;;;;;;19.75;16.48;;;;;;;-145.63;100.00;61273.97;5024243;28;20041;-67
2023/03/24 07:38:04;;;;;;;20.23;16.45;;;;;;;-145.63;100.00;61273.97;5004985;28;20076;-67
2023/03/24 07:40:30;;;;;;;20.88;16.92;;;;;;;-145.63;100.00;61273.97;5019471;28;20053;-67
2023/03/24 07:43:00;;;;;;;18.60;15.13;;;;;;;-145.63;100.00;61273.97;5023990;28;20036;-66
2023/03/24 07:45:27;;;;;;;18.52;16.05;;;;;;;-145.63;100.00;61273.97;5017151;28;20060;-65
2023/03/24 07:47:53;;;;;;;19.02;15.70;;;;;;;-145.63;100.00;61273.97;5006359;28;20045;-66
2023/03/24 07:50:19;;;;;;;18.80;15.98;;;;;;;-145.63;100.00;61273.97;5010003;28;20032;-66
2023/03/24 07:52:49;;;;;;;18.45;15.88;;;;;;;-145.63;100.00;61273.97;5019672;28;20038;-65
2023/03/24 07:55:15;;;;;;;18.83;15.60;;;;;;;-145.63;100.00;61273.97;5011224;28;20037;-66
2023/03/24 07:57:42;;;;;;;19.50;15.60;;;;;;;-145.63;100.00;61273.97;5012371;28;20069;-66
2023/03/24 08:00:18;;;;;;;16.65;14.25;;;;;;;-145.63;100.00;61273.97;5020582;28;20109;-67
2023/03/24 08:02:47;;;;;;;14.65;13.13;;;;;;;-145.63;100.00;61273.97;5003938;28;20230;-67
2023/03/24 08:05:13;;;;;;;12.95;11.55;;;;;;;-145.63;100.00;61273.97;5022714;28;20032;-66
2023/03/24 08:07:43;;;;;;;15.23;12.02;;;;;;;-145.63;100.00;61273.97;5020800;28;20048;-66
2023/03/24 08:10:16;;;;;;;12.25;10.95;;;;;;;-145.63;100.00;61273.97;5021565;28;20053;-65
2023/03/24 08:12:42;;;;;;;12.77;11.48;;;;;;;-145.63;100.00;61273.97;5015375;28;20056;-67
2023/03/24 08:15:08;;;;;;;14.98;11.25;;;;;;;-145.63;100.00;61273.97;5006487;28;20022;-66
2023/03/24 08:17:35;;;;;;;12.13;10.23;;;;;;;-145.63;100.00;61273.97;5023015;28;20026;-66
2023/03/24 08:20:13;;;;;;;13.00;10.73;;;;;;;-145.63;100.00;61273.97;5023790;28;20088;-68
2023/03/24 08:22:42;;;;;;;10.38;9.27;;;;;;;-145.63;100.00;61273.97;5039567;28;20030;-66
2023/03/24 08:25:10;;;;;;;14.48;10.63;;;;;;;-145.63;100.00;61273.97;5014825;28;20338;-66
2023/03/24 08:27:37;;;;;;;10.52;9.30;;;;;;;-145.63;100.00;61273.97;5018578;28;20030;-68
2023/03/24 08:30:06;;;;;;;11.88;9.43;;;;;;;-145.63;100.00;61273.97;5020478;28;20067;-65
2023/03/24 08:32:32;;;;;;;9.40;8.48;;;;;;;-145.63;100.00;61273.97;5037793;28;20093;-66
2023/03/24 08:34:58;;;;;;;10.93;9.02;;;;;;;-145.63;100.00;61273.97;5023787;28;20058;-65
2023/03/24 08:37:23;;;;;;;13.07;8.30;;;;;;;-145.63;100.00;61273.97;5008550;28;20118;-66
2023/03/24 08:39:49;;;;;;;10.48;9.35;;;;;;;-145.63;100.00;61273.97;5012304;28;20226;-65
2023/03/24 08:42:14;;;;;;;10.93;8.50;;;;;;;-145.63;100.00;61273.97;5019137;28;20502;-66
2023/03/24 08:44:41;;;;;;;13.25;9.75;;;;;;;-145.63;100.00;61273.97;5003230;28;20046;-66
2023/03/24 08:47:06;;;;;;;12.80;9.20;;;;;;;-145.63;100.00;61273.97;5022708;28;20068;-66
2023/03/24 08:49:32;;;;;;;11.18;8.77;;;;;;;-145.63;100.00;61273.97;5008542;28;20037;-67
2023/03/24 08:51:58;;;;;;;10.38;8.18;;;;;;;-145.63;100.00;61273.97;5014113;28;20089;-65
2023/03/24 08:54:25;;;;;;;10.20;8.18;;;;;;;-145.63;100.00;61273.97;5017367;28;20343;-66
2023/03/24 08:56:50;;;;;;;11.27;8.43;;;;;;;-145.63;100.00;61273.97;5003982;28;20069;-66
2023/03/24 08:59:16;;;;;;;9.38;8.23;;;;;;;-145.63;100.00;61273.97;5023832;28;20104;-65
2023/03/24 09:01:42;;;;;;;10.07;8.10;;;;;;;-145.63;100.00;61273.97;5006135;28;20045;-66
2023/03/24 09:04:08;;;;;;;9.63;7.50;;;;;;;-145.63;100.00;61273.97;5014184;28;20338;-66
2023/03/24 09:06:34;;;;;;;8.85;7.93;;;;;;;-145.63;100.00;61273.97;5022307;28;20048;-67
2023/03/24 09:09:01;;;;;;;8.73;7.40;;;;;;;-145.63;100.00;61273.97;5022636;28;20238;-66
2023/03/24 09:11:26;;;;;;;9.18;7.10;;;;;;;-145.63;100.00;61273.97;5022502;28;20080;-67
2023/03/24 09:13:52;;;;;;;9.40;6.45;;;;;;;-145.63;100.00;61273.97;5005277;28;20282;-66
2023/03/24 09:16:18;;;;;;;7.75;6.95;;;;;;;-145.63;100.00;61273.97;5015325;28;20026;-66
2023/03/24 09:18:44;;;;;;;10.07;7.90;;;;;;;-145.63;100.00;61273.97;5014888;28;20046;-67
2023/03/24 09:21:10;;;;;;;7.90;6.40;;;;;;;-145.63;100.00;61273.97;5006418;28;20029;-66
2023/03/24 09:23:35;;;;;;;7.65;6.40;;;;;;;-145.63;100.00;61273.97;5022229;28;20099;-67
2023/03/24 09:26:02;;;;;;;7.47;6.78;;;;;;;-145.63;100.00;61273.97;5013282;28;20022;-66
2023/03/24 09:28:28;;;;;;;9.52;6.80;;;;;;;-145.63;100.00;61273.97;5022471;28;20361;-67
2023/03/24 09:31:01;;;;;;;9.07;7.03;;;;;;;-145.63;100.00;61273.97;5020696;28;20033;-66
2023/03/24 09:33:31;;;;;;;8.77;6.93;;;;;;;-145.63;100.00;61273.97;5022749;28;20049;-66
2023/03/24 09:36:30;;;;;;;8.18;7.38;;;;;;;-145.63;100.00;61273.97;5029565;28;20029;-67
2023/03/24 09:42:54;;;;;;;8.70;7.10;;;;;;;-145.63;100.00;61273.97;5016867;28;20029;-67
2023/03/24 09:45:21;;;;;;;7.35;6.57;;;;;;;-145.63;100.00;61273.97;5021586;28;20337;-66
2023/03/24 09:48:02;;;;;;;9.13;6.82;;;;;;;-145.63;100.00;61273.97;5023719;28;20034;-67
2023/03/24 09:50:52;;;;;;;9.57;7.15;;;;;;;-145.63;100.00;61273.97;5014224;28;20046;-66
2023/03/24 09:53:29;;;;;;;8.60;6.63;;;;;;;-145.63;100.00;61273.97;5006248;28;20296;-67
2023/03/24 09:56:22;;;;;;;7.28;6.32;;;;;;;-145.63;100.00;61273.97;5043199;28;20059;-67
2023/03/24 09:59:06;;;;;;;8.05;7.25;;;;;;;-145.63;100.00;61273.97;5038312;28;20033;-65
2023/03/24 10:01:35;;;;;;;11.10;6.50;;;;;;;-145.63;100.00;61273.97;5039384;28;20030;-66
2023/03/24 10:04:01;;;;;;;7.18;6.40;;;;;;;-145.63;100.00;61273.97;5034991;28;20045;-66
2023/03/24 10:06:42;;;;;;;7.10;6.10;;;;;;;-145.63;100.00;61273.97;5019746;28;20315;-66
2023/03/24 10:09:30;;;;;;;8.43;5.53;;;;;;;-145.63;100.00;61273.97;5008455;28;20038;-66
2023/03/24 10:12:08;;;;;;;6.40;5.78;;;;;;;-145.63;100.00;61273.97;5026866;28;20058;-66
2023/03/24 10:14:57;;;;;;;8.00;5.55;;;;;;;-145.63;100.00;61273.97;5045628;28;20083;-65
2023/03/24 10:18:00;;;;;;;6.53;5.82;;;;;;;-145.63;100.00;61273.97;5026882;28;20049;-66
2023/03/24 10:20:33;;;;;;;6.80;6.10;;;;;;;-145.63;100.00;61273.97;5005540;28;20121;-65
2023/03/24 10:23:23;;;;;;;7.00;6.28;;;;;;;-145.63;100.00;61273.97;5023315;28;20085;-66
2023/03/24 10:26:11;;;;;;;5.88;5.28;;;;;;;-145.63;100.00;61273.97;5025707;28;20085;-66
2023/03/24 10:28:56;;;;;;;6.88;6.18;;;;;;;-145.63;100.00;61273.97;5010268;28;20092;-65
2023/03/24 10:31:33;;;;;;;7.85;6.20;;;;;;;-145.63;100.00;61273.97;5032668;28;20047;-64
2023/03/24 10:33:59;;;;;;;7.63;6.35;;;;;;;-145.63;100.00;61273.97;5035305;28;20026;-65
2023/03/24 10:36:26;;;;;;;7.18;6.47;;;;;;;-145.63;100.00;61273.97;5019843;28;20027;-65
2023/03/24 10:38:52;;;;;;;8.27;6.45;;;;;;;-145.63;100.00;61273.97;5005826;28;20073;-67
2023/03/24 10:41:26;;;;;;;7.43;6.57;;;;;;;-145.63;100.00;61273.97;5005994;28;20303;-66
2023/03/24 10:43:56;;;;;;;8.07;6.63;;;;;;;-145.63;100.00;61273.97;5020692;28;20034;-66
2023/03/24 10:46:36;;;;;;;8.02;6.38;;;;;;;-145.63;100.00;61273.97;5038026;28;20087;-66
2023/03/24 10:49:11;;;;;;;7.32;6.22;;;;;;;-145.63;100.00;61273.97;5035427;28;20313;-66
2023/03/24 10:51:36;;;;;;;7.80;6.60;;;;;;;-145.63;100.00;61273.97;5018982;28;20335;-64
2023/03/24 10:54:09;;;;;;;9.93;6.43;;;;;;;-145.63;100.00;61273.97;5005159;28;20030;-66
2023/03/24 10:56:49;;;;;;;6.60;6.00;;;;;;;-145.63;100.00;61273.97;5005898;28;20050;-67
2023/03/24 10:59:31;;;;;;;7.25;6.40;;;;;;;-145.63;100.00;61273.97;5023536;28;20042;-66
2023/03/24 11:01:59;;;;;;;9.30;6.85;;;;;;;-145.63;100.00;61273.97;5008308;28;20051;-66
2023/03/24 11:04:26;;;;;;;9.07;6.53;;;;;;;-145.63;100.00;61273.97;5017813;28;20045;-64
2023/03/24 11:07:02;;;;;;;6.65;5.95;;;;;;;-145.63;100.00;61273.97;5024445;28;20026;-66
2023/03/24 11:09:29;;;;;;;7.72;6.75;;;;;;;-145.63;100.00;61273.97;5023403;28;20034;-67
2023/03/24 11:11:57;;;;;;;8.02;6.20;;;;;;;-145.63;100.00;61273.97;5024875;28;20033;-66
2023/03/24 11:14:31;;;;;;;7.55;6.68;;;;;;;-145.63;100.00;61273.97;5006912;28;20101;-67
2023/03/24 11:17:15;;;;;;;8.07;6.28;;;;;;;-145.63;100.00;61273.97;5010001;28;20018;-66
2023/03/24 11:20:07;;;;;;;6.88;6.18;;;;;;;-145.63;100.00;61273.97;5018977;28;20034;-67